sensor_id;sensor_type;location;lat;lon;timestamp;P1;durP1;ratioP1;P2;durP2;ratioP2
20245;SDS011;10281;54.406;18.556;2023-12-04T00:00:07;18.03;;;9.80;;
20245;SDS011;10281;54.406;18.556;2023-12-04T00:02:35;11.97;;;6.37;;
20245;SDS011;10281;54.406;18.556;2023-12-04T00:05:02;19.50;;;9.27;;
20245;SDS011;10281;54.406;18.556;2023-12-04T00:07:29;14.93;;;8.13;;
20245;SDS011;10281;54.406;18.556;2023-12-04T00:09:56;20.27;;;9.30;;
20245;SDS011;10281;54.406;18.556;2023-12-04T00:12:22;9.70;;;5.03;;
20245;SDS011;10281;54.406;18.556;2023-12-04T00:14:49;6.37;;;4.00;;
20245;SDS011;10281;54.406;18.556;2023-12-04T00:17:15;5.87;;;3.80;;
20245;SDS011;10281;54.406;18.556;2023-12-04T00:19:43;6.33;;;3.63;;
20245;SDS011;10281;54.406;18.556;2023-12-04T00:22:10;5.73;;;4.00;;
20245;SDS011;10281;54.406;18.556;2023-12-04T00:24:36;6.40;;;3.67;;
20245;SDS011;10281;54.406;18.556;2023-12-04T00:27:03;5.80;;;3.83;;
20245;SDS011;10281;54.406;18.556;2023-12-04T00:29:30;4.80;;;3.47;;
20245;SDS011;10281;54.406;18.556;2023-12-04T00:31:56;4.30;;;3.23;;
20245;SDS011;10281;54.406;18.556;2023-12-04T00:34:23;3.90;;;2.93;;
20245;SDS011;10281;54.406;18.556;2023-12-04T00:36:50;5.97;;;3.50;;
20245;SDS011;10281;54.406;18.556;2023-12-04T00:39:16;4.57;;;3.13;;
20245;SDS011;10281;54.406;18.556;2023-12-04T00:41:43;4.17;;;3.00;;
20245;SDS011;10281;54.406;18.556;2023-12-04T00:44:09;4.40;;;3.10;;
20245;SDS011;10281;54.406;18.556;2023-12-04T00:46:36;4.63;;;3.10;;
20245;SDS011;10281;54.406;18.556;2023-12-04T00:49:03;6.13;;;2.80;;
20245;SDS011;10281;54.406;18.556;2023-12-04T00:51:36;5.33;;;3.10;;
20245;SDS011;10281;54.406;18.556;2023-12-04T00:54:04;4.60;;;3.10;;
20245;SDS011;10281;54.406;18.556;2023-12-04T00:56:30;5.07;;;3.10;;
20245;SDS011;10281;54.406;18.556;2023-12-04T00:58:57;4.10;;;3.10;;
20245;SDS011;10281;54.406;18.556;2023-12-04T01:01:23;5.17;;;2.90;;
20245;SDS011;10281;54.406;18.556;2023-12-04T01:03:50;5.30;;;3.10;;
20245;SDS011;10281;54.406;18.556;2023-12-04T01:06:20;4.37;;;3.13;;
20245;SDS011;10281;54.406;18.556;2023-12-04T01:08:48;4.67;;;2.93;;
20245;SDS011;10281;54.406;18.556;2023-12-04T01:11:16;5.53;;;2.80;;
20245;SDS011;10281;54.406;18.556;2023-12-04T01:13:45;4.97;;;3.10;;
20245;SDS011;10281;54.406;18.556;2023-12-04T01:16:11;4.53;;;2.63;;
20245;SDS011;10281;54.406;18.556;2023-12-04T01:18:38;3.33;;;2.50;;
20245;SDS011;10281;54.406;18.556;2023-12-04T01:21:05;3.50;;;2.80;;
20245;SDS011;10281;54.406;18.556;2023-12-04T01:23:32;3.43;;;2.73;;
20245;SDS011;10281;54.406;18.556;2023-12-04T01:25:59;4.33;;;3.00;;
20245;SDS011;10281;54.406;18.556;2023-12-04T01:28:26;3.77;;;2.93;;
20245;SDS011;10281;54.406;18.556;2023-12-04T01:30:52;5.63;;;2.77;;
20245;SDS011;10281;54.406;18.556;2023-12-04T01:33:19;3.43;;;2.70;;
20245;SDS011;10281;54.406;18.556;2023-12-04T01:35:45;4.23;;;2.80;;
20245;SDS011;10281;54.406;18.556;2023-12-04T01:38:12;4.27;;;2.80;;
20245;SDS011;10281;54.406;18.556;2023-12-04T01:40:39;3.63;;;3.07;;
20245;SDS011;10281;54.406;18.556;2023-12-04T01:43:05;4.10;;;2.87;;
20245;SDS011;10281;54.406;18.556;2023-12-04T01:45:32;4.67;;;2.83;;
20245;SDS011;10281;54.406;18.556;2023-12-04T01:47:58;3.70;;;2.70;;
20245;SDS011;10281;54.406;18.556;2023-12-04T01:50:25;3.87;;;2.97;;
20245;SDS011;10281;54.406;18.556;2023-12-04T01:52:52;3.37;;;2.70;;
20245;SDS011;10281;54.406;18.556;2023-12-04T01:55:20;3.47;;;2.70;;
20245;SDS011;10281;54.406;18.556;2023-12-04T01:57:47;4.90;;;2.97;;
20245;SDS011;10281;54.406;18.556;2023-12-04T02:00:14;3.40;;;2.77;;
20245;SDS011;10281;54.406;18.556;2023-12-04T02:02:41;3.23;;;2.67;;
20245;SDS011;10281;54.406;18.556;2023-12-04T02:05:08;4.27;;;2.90;;
20245;SDS011;10281;54.406;18.556;2023-12-04T02:07:35;4.07;;;3.27;;
20245;SDS011;10281;54.406;18.556;2023-12-04T02:10:03;5.57;;;4.40;;
20245;SDS011;10281;54.406;18.556;2023-12-04T02:12:30;4.37;;;3.57;;
20245;SDS011;10281;54.406;18.556;2023-12-04T02:14:57;6.43;;;3.57;;
20245;SDS011;10281;54.406;18.556;2023-12-04T02:17:24;6.97;;;3.90;;
20245;SDS011;10281;54.406;18.556;2023-12-04T02:19:52;6.50;;;3.50;;
20245;SDS011;10281;54.406;18.556;2023-12-04T02:22:19;6.27;;;3.27;;
20245;SDS011;10281;54.406;18.556;2023-12-04T02:24:46;4.77;;;3.13;;
20245;SDS011;10281;54.406;18.556;2023-12-04T02:27:20;4.40;;;2.93;;
20245;SDS011;10281;54.406;18.556;2023-12-04T02:29:52;5.57;;;3.83;;
20245;SDS011;10281;54.406;18.556;2023-12-04T02:32:21;4.80;;;2.97;;
20245;SDS011;10281;54.406;18.556;2023-12-04T02:34:49;3.87;;;2.80;;
20245;SDS011;10281;54.406;18.556;2023-12-04T02:37:18;4.00;;;2.80;;
20245;SDS011;10281;54.406;18.556;2023-12-04T02:39:46;2.93;;;2.63;;
20245;SDS011;10281;54.406;18.556;2023-12-04T02:42:15;3.57;;;2.60;;
20245;SDS011;10281;54.406;18.556;2023-12-04T02:44:42;4.40;;;2.90;;
20245;SDS011;10281;54.406;18.556;2023-12-04T02:47:09;4.03;;;2.80;;
20245;SDS011;10281;54.406;18.556;2023-12-04T02:49:36;3.53;;;2.93;;
20245;SDS011;10281;54.406;18.556;2023-12-04T02:52:02;5.73;;;3.07;;
20245;SDS011;10281;54.406;18.556;2023-12-04T02:54:29;8.53;;;5.80;;
20245;SDS011;10281;54.406;18.556;2023-12-04T02:56:56;30.37;;;18.13;;
20245;SDS011;10281;54.406;18.556;2023-12-04T02:59:22;18.87;;;11.77;;
20245;SDS011;10281;54.406;18.556;2023-12-04T03:01:49;25.00;;;18.40;;
20245;SDS011;10281;54.406;18.556;2023-12-04T03:04:16;4.40;;;3.03;;
20245;SDS011;10281;54.406;18.556;2023-12-04T03:06:42;8.67;;;7.70;;
20245;SDS011;10281;54.406;18.556;2023-12-04T03:09:09;7.40;;;6.13;;
20245;SDS011;10281;54.406;18.556;2023-12-04T03:11:35;3.90;;;3.00;;
20245;SDS011;10281;54.406;18.556;2023-12-04T03:14:06;5.40;;;2.50;;
20245;SDS011;10281;54.406;18.556;2023-12-04T03:16:32;3.97;;;2.57;;
20245;SDS011;10281;54.406;18.556;2023-12-04T03:19:00;4.37;;;2.60;;
20245;SDS011;10281;54.406;18.556;2023-12-04T03:21:26;3.80;;;2.80;;
20245;SDS011;10281;54.406;18.556;2023-12-04T03:23:54;3.47;;;2.90;;
20245;SDS011;10281;54.406;18.556;2023-12-04T03:26:21;2.90;;;2.33;;
20245;SDS011;10281;54.406;18.556;2023-12-04T03:28:47;4.47;;;2.57;;
20245;SDS011;10281;54.406;18.556;2023-12-04T03:31:14;3.70;;;2.90;;
20245;SDS011;10281;54.406;18.556;2023-12-04T03:33:41;3.27;;;2.40;;
20245;SDS011;10281;54.406;18.556;2023-12-04T03:36:08;4.27;;;2.90;;
20245;SDS011;10281;54.406;18.556;2023-12-04T03:38:34;6.57;;;3.30;;
20245;SDS011;10281;54.406;18.556;2023-12-04T03:41:01;4.47;;;2.60;;
20245;SDS011;10281;54.406;18.556;2023-12-04T03:43:28;3.27;;;2.77;;
20245;SDS011;10281;54.406;18.556;2023-12-04T03:45:54;4.17;;;2.97;;
20245;SDS011;10281;54.406;18.556;2023-12-04T03:48:21;4.47;;;3.07;;
20245;SDS011;10281;54.406;18.556;2023-12-04T03:50:48;5.23;;;3.40;;
20245;SDS011;10281;54.406;18.556;2023-12-04T03:53:14;6.23;;;3.60;;
20245;SDS011;10281;54.406;18.556;2023-12-04T03:55:42;4.43;;;3.10;;
20245;SDS011;10281;54.406;18.556;2023-12-04T03:58:08;3.90;;;2.93;;
20245;SDS011;10281;54.406;18.556;2023-12-04T04:00:35;3.57;;;3.20;;
20245;SDS011;10281;54.406;18.556;2023-12-04T04:03:04;6.57;;;4.27;;
20245;SDS011;10281;54.406;18.556;2023-12-04T04:05:30;6.50;;;4.60;;
20245;SDS011;10281;54.406;18.556;2023-12-04T04:07:59;6.17;;;4.10;;
20245;SDS011;10281;54.406;18.556;2023-12-04T04:10:26;5.87;;;3.93;;
20245;SDS011;10281;54.406;18.556;2023-12-04T04:12:53;5.13;;;3.97;;
20245;SDS011;10281;54.406;18.556;2023-12-04T04:15:19;3.60;;;3.10;;
20245;SDS011;10281;54.406;18.556;2023-12-04T04:17:46;4.27;;;3.63;;
20245;SDS011;10281;54.406;18.556;2023-12-04T04:20:12;5.93;;;3.70;;
20245;SDS011;10281;54.406;18.556;2023-12-04T04:22:40;5.40;;;3.70;;
20245;SDS011;10281;54.406;18.556;2023-12-04T04:25:07;5.40;;;3.87;;
20245;SDS011;10281;54.406;18.556;2023-12-04T04:27:33;5.17;;;3.33;;
20245;SDS011;10281;54.406;18.556;2023-12-04T04:30:00;5.53;;;3.60;;
20245;SDS011;10281;54.406;18.556;2023-12-04T04:32:28;5.03;;;4.13;;
20245;SDS011;10281;54.406;18.556;2023-12-04T04:34:54;5.47;;;3.67;;
20245;SDS011;10281;54.406;18.556;2023-12-04T04:37:21;6.10;;;3.97;;
20245;SDS011;10281;54.406;18.556;2023-12-04T04:39:47;6.10;;;4.47;;
20245;SDS011;10281;54.406;18.556;2023-12-04T04:42:14;6.57;;;3.87;;
20245;SDS011;10281;54.406;18.556;2023-12-04T04:44:41;6.67;;;4.13;;
20245;SDS011;10281;54.406;18.556;2023-12-04T04:47:07;6.60;;;4.20;;
20245;SDS011;10281;54.406;18.556;2023-12-04T04:49:34;8.20;;;4.30;;
20245;SDS011;10281;54.406;18.556;2023-12-04T04:52:00;8.20;;;4.57;;
20245;SDS011;10281;54.406;18.556;2023-12-04T04:54:30;6.23;;;3.97;;
20245;SDS011;10281;54.406;18.556;2023-12-04T04:56:58;7.77;;;4.23;;
20245;SDS011;10281;54.406;18.556;2023-12-04T04:59:24;7.03;;;4.90;;
20245;SDS011;10281;54.406;18.556;2023-12-04T05:01:52;7.33;;;4.40;;
20245;SDS011;10281;54.406;18.556;2023-12-04T05:04:19;6.87;;;5.10;;
20245;SDS011;10281;54.406;18.556;2023-12-04T05:06:46;6.43;;;4.57;;
20245;SDS011;10281;54.406;18.556;2023-12-04T05:09:12;7.60;;;5.10;;
20245;SDS011;10281;54.406;18.556;2023-12-04T05:11:39;15.17;;;7.17;;
20245;SDS011;10281;54.406;18.556;2023-12-04T05:14:05;13.97;;;7.37;;
20245;SDS011;10281;54.406;18.556;2023-12-04T05:16:32;13.93;;;6.80;;
20245;SDS011;10281;54.406;18.556;2023-12-04T05:18:58;10.53;;;5.87;;
20245;SDS011;10281;54.406;18.556;2023-12-04T05:21:25;6.57;;;4.63;;
20245;SDS011;10281;54.406;18.556;2023-12-04T05:23:52;8.40;;;5.00;;
20245;SDS011;10281;54.406;18.556;2023-12-04T05:26:18;8.03;;;4.43;;
20245;SDS011;10281;54.406;18.556;2023-12-04T05:28:45;11.53;;;6.67;;
20245;SDS011;10281;54.406;18.556;2023-12-04T05:31:12;12.93;;;6.47;;
20245;SDS011;10281;54.406;18.556;2023-12-04T05:33:38;13.20;;;6.70;;
20245;SDS011;10281;54.406;18.556;2023-12-04T05:36:05;13.27;;;6.90;;
20245;SDS011;10281;54.406;18.556;2023-12-04T05:38:32;8.67;;;6.00;;
20245;SDS011;10281;54.406;18.556;2023-12-04T05:40:59;20.27;;;9.80;;
20245;SDS011;10281;54.406;18.556;2023-12-04T05:43:25;29.20;;;11.73;;
20245;SDS011;10281;54.406;18.556;2023-12-04T05:45:52;31.80;;;13.60;;
20245;SDS011;10281;54.406;18.556;2023-12-04T05:48:19;27.17;;;12.27;;
20245;SDS011;10281;54.406;18.556;2023-12-04T05:50:45;23.30;;;11.33;;
20245;SDS011;10281;54.406;18.556;2023-12-04T05:53:12;22.20;;;11.93;;
20245;SDS011;10281;54.406;18.556;2023-12-04T05:55:38;20.90;;;11.80;;
20245;SDS011;10281;54.406;18.556;2023-12-04T05:58:06;25.07;;;12.30;;
20245;SDS011;10281;54.406;18.556;2023-12-04T06:00:32;23.17;;;12.50;;
20245;SDS011;10281;54.406;18.556;2023-12-04T06:02:59;20.30;;;10.43;;
20245;SDS011;10281;54.406;18.556;2023-12-04T06:05:25;19.20;;;9.80;;
20245;SDS011;10281;54.406;18.556;2023-12-04T06:07:53;17.43;;;9.53;;
20245;SDS011;10281;54.406;18.556;2023-12-04T06:10:19;12.53;;;8.07;;
20245;SDS011;10281;54.406;18.556;2023-12-04T06:12:46;11.17;;;6.70;;
20245;SDS011;10281;54.406;18.556;2023-12-04T06:15:12;11.30;;;7.10;;
20245;SDS011;10281;54.406;18.556;2023-12-04T06:17:39;15.37;;;8.20;;
20245;SDS011;10281;54.406;18.556;2023-12-04T06:20:06;12.67;;;7.27;;
20245;SDS011;10281;54.406;18.556;2023-12-04T06:22:34;12.80;;;6.63;;
20245;SDS011;10281;54.406;18.556;2023-12-04T06:25:01;13.13;;;7.57;;
20245;SDS011;10281;54.406;18.556;2023-12-04T06:27:28;9.87;;;6.20;;
20245;SDS011;10281;54.406;18.556;2023-12-04T06:29:55;10.50;;;7.10;;
20245;SDS011;10281;54.406;18.556;2023-12-04T06:32:22;11.87;;;7.30;;
20245;SDS011;10281;54.406;18.556;2023-12-04T06:34:49;11.90;;;7.13;;
20245;SDS011;10281;54.406;18.556;2023-12-04T06:37:17;11.60;;;7.23;;
20245;SDS011;10281;54.406;18.556;2023-12-04T06:39:44;12.07;;;7.70;;
20245;SDS011;10281;54.406;18.556;2023-12-04T06:42:14;10.60;;;7.33;;
20245;SDS011;10281;54.406;18.556;2023-12-04T06:44:41;12.37;;;7.87;;
20245;SDS011;10281;54.406;18.556;2023-12-04T06:47:08;12.67;;;7.33;;
20245;SDS011;10281;54.406;18.556;2023-12-04T06:49:35;11.30;;;7.43;;
20245;SDS011;10281;54.406;18.556;2023-12-04T06:52:02;11.27;;;7.87;;
20245;SDS011;10281;54.406;18.556;2023-12-04T06:54:30;14.47;;;7.53;;
20245;SDS011;10281;54.406;18.556;2023-12-04T06:56:57;13.50;;;8.07;;
20245;SDS011;10281;54.406;18.556;2023-12-04T06:59:23;12.40;;;8.20;;
20245;SDS011;10281;54.406;18.556;2023-12-04T07:01:50;14.93;;;8.50;;
20245;SDS011;10281;54.406;18.556;2023-12-04T07:04:17;14.90;;;8.60;;
20245;SDS011;10281;54.406;18.556;2023-12-04T07:06:46;16.17;;;8.83;;
20245;SDS011;10281;54.406;18.556;2023-12-04T07:09:14;14.90;;;8.70;;
20245;SDS011;10281;54.406;18.556;2023-12-04T07:11:42;15.33;;;9.00;;
20245;SDS011;10281;54.406;18.556;2023-12-04T07:14:09;16.83;;;9.10;;
20245;SDS011;10281;54.406;18.556;2023-12-04T07:16:39;13.57;;;9.07;;
20245;SDS011;10281;54.406;18.556;2023-12-04T07:19:07;16.20;;;9.00;;
20245;SDS011;10281;54.406;18.556;2023-12-04T07:21:34;17.77;;;9.97;;
20245;SDS011;10281;54.406;18.556;2023-12-04T07:24:02;15.47;;;9.30;;
20245;SDS011;10281;54.406;18.556;2023-12-04T07:26:30;15.30;;;8.57;;
20245;SDS011;10281;54.406;18.556;2023-12-04T07:28:57;13.70;;;8.30;;
20245;SDS011;10281;54.406;18.556;2023-12-04T07:31:24;15.33;;;8.63;;
20245;SDS011;10281;54.406;18.556;2023-12-04T07:33:53;14.40;;;8.63;;
20245;SDS011;10281;54.406;18.556;2023-12-04T07:36:20;14.47;;;8.17;;
20245;SDS011;10281;54.406;18.556;2023-12-04T07:38:47;14.53;;;8.73;;
20245;SDS011;10281;54.406;18.556;2023-12-04T07:41:15;16.47;;;8.90;;
20245;SDS011;10281;54.406;18.556;2023-12-04T07:43:41;14.73;;;8.43;;
20245;SDS011;10281;54.406;18.556;2023-12-04T07:46:09;14.73;;;9.07;;
20245;SDS011;10281;54.406;18.556;2023-12-04T07:48:37;15.30;;;8.50;;
20245;SDS011;10281;54.406;18.556;2023-12-04T07:51:05;16.13;;;8.70;;
20245;SDS011;10281;54.406;18.556;2023-12-04T07:53:32;13.53;;;8.33;;
20245;SDS011;10281;54.406;18.556;2023-12-04T07:56:00;14.27;;;8.63;;
20245;SDS011;10281;54.406;18.556;2023-12-04T07:58:29;13.90;;;8.80;;
20245;SDS011;10281;54.406;18.556;2023-12-04T08:00:57;13.00;;;8.40;;
20245;SDS011;10281;54.406;18.556;2023-12-04T08:03:24;14.30;;;8.63;;
20245;SDS011;10281;54.406;18.556;2023-12-04T08:05:51;14.90;;;8.80;;
20245;SDS011;10281;54.406;18.556;2023-12-04T08:08:18;16.73;;;9.53;;
20245;SDS011;10281;54.406;18.556;2023-12-04T08:10:45;14.97;;;9.80;;
20245;SDS011;10281;54.406;18.556;2023-12-04T08:13:11;14.93;;;8.77;;
20245;SDS011;10281;54.406;18.556;2023-12-04T08:15:38;15.07;;;9.57;;
20245;SDS011;10281;54.406;18.556;2023-12-04T08:18:05;14.73;;;9.83;;
20245;SDS011;10281;54.406;18.556;2023-12-04T08:20:31;16.40;;;9.30;;
20245;SDS011;10281;54.406;18.556;2023-12-04T08:22:58;14.57;;;9.30;;
20245;SDS011;10281;54.406;18.556;2023-12-04T08:25:25;16.50;;;10.83;;
20245;SDS011;10281;54.406;18.556;2023-12-04T08:27:51;14.20;;;9.53;;
20245;SDS011;10281;54.406;18.556;2023-12-04T08:30:18;18.70;;;10.83;;
20245;SDS011;10281;54.406;18.556;2023-12-04T08:32:45;21.10;;;12.13;;
20245;SDS011;10281;54.406;18.556;2023-12-04T08:35:12;18.20;;;11.20;;
20245;SDS011;10281;54.406;18.556;2023-12-04T08:37:39;14.97;;;10.30;;
20245;SDS011;10281;54.406;18.556;2023-12-04T08:40:06;16.03;;;10.57;;
20245;SDS011;10281;54.406;18.556;2023-12-04T08:42:34;20.93;;;11.50;;
20245;SDS011;10281;54.406;18.556;2023-12-04T08:45:00;16.13;;;10.47;;
20245;SDS011;10281;54.406;18.556;2023-12-04T08:47:27;14.80;;;10.03;;
20245;SDS011;10281;54.406;18.556;2023-12-04T08:49:54;16.93;;;10.27;;
20245;SDS011;10281;54.406;18.556;2023-12-04T08:52:20;15.30;;;10.17;;
20245;SDS011;10281;54.406;18.556;2023-12-04T08:54:47;16.67;;;10.07;;
20245;SDS011;10281;54.406;18.556;2023-12-04T08:57:13;16.70;;;10.43;;
20245;SDS011;10281;54.406;18.556;2023-12-04T08:59:40;21.47;;;14.00;;
20245;SDS011;10281;54.406;18.556;2023-12-04T09:02:07;21.07;;;13.57;;
20245;SDS011;10281;54.406;18.556;2023-12-04T09:04:34;27.17;;;16.37;;
20245;SDS011;10281;54.406;18.556;2023-12-04T09:07:00;33.80;;;21.03;;
20245;SDS011;10281;54.406;18.556;2023-12-04T09:09:27;28.90;;;18.10;;
20245;SDS011;10281;54.406;18.556;2023-12-04T09:11:53;27.37;;;17.20;;
20245;SDS011;10281;54.406;18.556;2023-12-04T09:14:20;28.30;;;17.57;;
20245;SDS011;10281;54.406;18.556;2023-12-04T09:16:47;22.77;;;14.60;;
20245;SDS011;10281;54.406;18.556;2023-12-04T09:19:13;22.17;;;14.03;;
20245;SDS011;10281;54.406;18.556;2023-12-04T09:21:40;20.40;;;13.97;;
20245;SDS011;10281;54.406;18.556;2023-12-04T09:24:08;20.17;;;12.30;;
20245;SDS011;10281;54.406;18.556;2023-12-04T09:26:34;20.13;;;11.83;;
20245;SDS011;10281;54.406;18.556;2023-12-04T09:29:01;17.43;;;11.50;;
20245;SDS011;10281;54.406;18.556;2023-12-04T09:31:28;17.63;;;12.00;;
20245;SDS011;10281;54.406;18.556;2023-12-04T09:33:54;16.37;;;11.33;;
20245;SDS011;10281;54.406;18.556;2023-12-04T09:36:21;16.87;;;10.43;;
20245;SDS011;10281;54.406;18.556;2023-12-04T09:38:48;16.33;;;10.40;;
20245;SDS011;10281;54.406;18.556;2023-12-04T09:41:14;16.03;;;10.63;;
20245;SDS011;10281;54.406;18.556;2023-12-04T09:43:42;15.97;;;10.33;;
20245;SDS011;10281;54.406;18.556;2023-12-04T09:46:10;21.30;;;13.57;;
20245;SDS011;10281;54.406;18.556;2023-12-04T09:48:38;17.70;;;11.13;;
20245;SDS011;10281;54.406;18.556;2023-12-04T09:51:07;18.10;;;10.80;;
20245;SDS011;10281;54.406;18.556;2023-12-04T09:53:35;14.50;;;9.57;;
20245;SDS011;10281;54.406;18.556;2023-12-04T09:56:03;15.90;;;10.10;;
20245;SDS011;10281;54.406;18.556;2023-12-04T09:58:30;18.27;;;10.63;;
20245;SDS011;10281;54.406;18.556;2023-12-04T10:00:58;14.73;;;9.83;;
20245;SDS011;10281;54.406;18.556;2023-12-04T10:03:27;17.70;;;10.50;;
20245;SDS011;10281;54.406;18.556;2023-12-04T10:05:55;16.60;;;10.27;;
20245;SDS011;10281;54.406;18.556;2023-12-04T10:08:22;16.80;;;10.90;;
20245;SDS011;10281;54.406;18.556;2023-12-04T10:10:49;15.03;;;9.50;;
20245;SDS011;10281;54.406;18.556;2023-12-04T10:13:15;16.83;;;10.97;;
20245;SDS011;10281;54.406;18.556;2023-12-04T10:15:47;13.83;;;9.87;;
20245;SDS011;10281;54.406;18.556;2023-12-04T10:20:56;15.27;;;9.27;;
20245;SDS011;10281;54.406;18.556;2023-12-04T10:23:23;14.53;;;9.27;;
20245;SDS011;10281;54.406;18.556;2023-12-04T10:25:59;14.87;;;9.67;;
20245;SDS011;10281;54.406;18.556;2023-12-04T10:28:26;18.20;;;10.47;;
20245;SDS011;10281;54.406;18.556;2023-12-04T10:30:53;15.73;;;9.57;;
20245;SDS011;10281;54.406;18.556;2023-12-04T10:33:20;17.83;;;11.03;;
20245;SDS011;10281;54.406;18.556;2023-12-04T10:35:49;15.63;;;10.57;;
20245;SDS011;10281;54.406;18.556;2023-12-04T10:38:17;15.53;;;10.40;;
20245;SDS011;10281;54.406;18.556;2023-12-04T10:40:44;15.43;;;10.47;;
20245;SDS011;10281;54.406;18.556;2023-12-04T10:43:14;13.57;;;9.63;;
20245;SDS011;10281;54.406;18.556;2023-12-04T10:45:44;14.10;;;9.53;;
20245;SDS011;10281;54.406;18.556;2023-12-04T10:48:12;12.90;;;8.50;;
20245;SDS011;10281;54.406;18.556;2023-12-04T10:50:40;14.47;;;9.10;;
20245;SDS011;10281;54.406;18.556;2023-12-04T10:53:08;13.13;;;8.97;;
20245;SDS011;10281;54.406;18.556;2023-12-04T10:55:36;13.70;;;8.80;;
20245;SDS011;10281;54.406;18.556;2023-12-04T10:58:05;14.20;;;9.53;;
20245;SDS011;10281;54.406;18.556;2023-12-04T11:00:33;14.37;;;8.43;;
20245;SDS011;10281;54.406;18.556;2023-12-04T11:03:03;10.23;;;7.63;;
20245;SDS011;10281;54.406;18.556;2023-12-04T11:05:35;11.53;;;8.23;;
20245;SDS011;10281;54.406;18.556;2023-12-04T11:08:05;12.03;;;8.00;;
20245;SDS011;10281;54.406;18.556;2023-12-04T11:10:33;11.60;;;7.80;;
20245;SDS011;10281;54.406;18.556;2023-12-04T11:13:08;13.50;;;7.80;;
20245;SDS011;10281;54.406;18.556;2023-12-04T11:15:39;14.07;;;8.60;;
20245;SDS011;10281;54.406;18.556;2023-12-04T11:18:06;13.43;;;8.23;;
20245;SDS011;10281;54.406;18.556;2023-12-04T11:20:36;12.40;;;7.97;;
20245;SDS011;10281;54.406;18.556;2023-12-04T11:23:05;13.70;;;8.80;;
20245;SDS011;10281;54.406;18.556;2023-12-04T11:25:35;14.33;;;8.93;;
20245;SDS011;10281;54.406;18.556;2023-12-04T11:28:02;13.30;;;8.40;;
20245;SDS011;10281;54.406;18.556;2023-12-04T11:30:29;12.90;;;8.23;;
20245;SDS011;10281;54.406;18.556;2023-12-04T11:32:56;12.00;;;8.10;;
20245;SDS011;10281;54.406;18.556;2023-12-04T11:35:25;13.10;;;8.07;;
20245;SDS011;10281;54.406;18.556;2023-12-04T11:37:52;12.73;;;8.60;;
20245;SDS011;10281;54.406;18.556;2023-12-04T11:40:19;12.43;;;7.67;;
20245;SDS011;10281;54.406;18.556;2023-12-04T11:42:45;15.90;;;9.20;;
20245;SDS011;10281;54.406;18.556;2023-12-04T11:45:19;13.10;;;7.87;;
20245;SDS011;10281;54.406;18.556;2023-12-04T11:47:48;12.10;;;8.00;;
20245;SDS011;10281;54.406;18.556;2023-12-04T11:50:18;11.27;;;7.37;;
20245;SDS011;10281;54.406;18.556;2023-12-04T11:52:45;11.50;;;8.00;;
20245;SDS011;10281;54.406;18.556;2023-12-04T11:55:15;12.47;;;7.63;;
20245;SDS011;10281;54.406;18.556;2023-12-04T11:57:42;14.93;;;8.83;;
20245;SDS011;10281;54.406;18.556;2023-12-04T12:00:12;14.23;;;8.23;;
20245;SDS011;10281;54.406;18.556;2023-12-04T12:05:35;14.83;;;9.30;;
20245;SDS011;10281;54.406;18.556;2023-12-04T12:08:07;13.87;;;8.70;;
20245;SDS011;10281;54.406;18.556;2023-12-04T12:10:34;12.50;;;8.67;;
20245;SDS011;10281;54.406;18.556;2023-12-04T12:13:01;13.47;;;8.83;;
20245;SDS011;10281;54.406;18.556;2023-12-04T12:15:28;14.27;;;8.37;;
20245;SDS011;10281;54.406;18.556;2023-12-04T12:17:57;14.07;;;8.87;;
20245;SDS011;10281;54.406;18.556;2023-12-04T12:20:24;15.30;;;10.10;;
20245;SDS011;10281;54.406;18.556;2023-12-04T12:22:52;15.50;;;8.73;;
20245;SDS011;10281;54.406;18.556;2023-12-04T12:25:19;13.57;;;8.83;;
20245;SDS011;10281;54.406;18.556;2023-12-04T12:27:45;16.77;;;8.47;;
20245;SDS011;10281;54.406;18.556;2023-12-04T12:30:12;12.97;;;8.47;;
20245;SDS011;10281;54.406;18.556;2023-12-04T12:32:40;13.47;;;8.23;;
20245;SDS011;10281;54.406;18.556;2023-12-04T12:35:07;14.37;;;8.63;;
20245;SDS011;10281;54.406;18.556;2023-12-04T12:37:34;15.43;;;8.43;;
20245;SDS011;10281;54.406;18.556;2023-12-04T12:40:01;14.63;;;8.57;;
20245;SDS011;10281;54.406;18.556;2023-12-04T12:42:30;13.37;;;8.50;;
20245;SDS011;10281;54.406;18.556;2023-12-04T12:44:59;13.23;;;8.10;;
20245;SDS011;10281;54.406;18.556;2023-12-04T12:47:29;14.50;;;8.60;;
20245;SDS011;10281;54.406;18.556;2023-12-04T12:49:56;13.07;;;8.67;;
20245;SDS011;10281;54.406;18.556;2023-12-04T12:52:23;14.17;;;9.47;;
20245;SDS011;10281;54.406;18.556;2023-12-04T12:54:52;14.60;;;9.33;;
20245;SDS011;10281;54.406;18.556;2023-12-04T12:57:19;21.43;;;11.27;;
20245;SDS011;10281;54.406;18.556;2023-12-04T12:59:46;16.07;;;10.13;;
20245;SDS011;10281;54.406;18.556;2023-12-04T13:02:13;14.37;;;9.17;;
20245;SDS011;10281;54.406;18.556;2023-12-04T13:04:41;15.23;;;8.80;;
20245;SDS011;10281;54.406;18.556;2023-12-04T13:07:08;15.90;;;9.40;;
20245;SDS011;10281;54.406;18.556;2023-12-04T13:09:35;14.63;;;8.77;;
20245;SDS011;10281;54.406;18.556;2023-12-04T13:12:03;13.93;;;9.10;;
20245;SDS011;10281;54.406;18.556;2023-12-04T13:14:31;17.50;;;9.50;;
20245;SDS011;10281;54.406;18.556;2023-12-04T13:16:58;14.47;;;9.13;;
20245;SDS011;10281;54.406;18.556;2023-12-04T13:19:24;16.40;;;9.00;;
20245;SDS011;10281;54.406;18.556;2023-12-04T13:21:51;16.77;;;8.93;;
20245;SDS011;10281;54.406;18.556;2023-12-04T13:24:18;17.97;;;11.60;;
20245;SDS011;10281;54.406;18.556;2023-12-04T13:26:44;25.40;;;14.20;;
20245;SDS011;10281;54.406;18.556;2023-12-04T13:29:12;17.07;;;11.03;;
20245;SDS011;10281;54.406;18.556;2023-12-04T13:31:41;16.87;;;10.33;;
20245;SDS011;10281;54.406;18.556;2023-12-04T13:34:08;16.73;;;11.40;;
20245;SDS011;10281;54.406;18.556;2023-12-04T13:36:34;16.57;;;11.67;;
20245;SDS011;10281;54.406;18.556;2023-12-04T13:39:02;19.27;;;10.43;;
20245;SDS011;10281;54.406;18.556;2023-12-04T13:41:30;16.40;;;10.53;;
20245;SDS011;10281;54.406;18.556;2023-12-04T13:44:03;15.70;;;10.37;;
20245;SDS011;10281;54.406;18.556;2023-12-04T13:46:30;15.70;;;9.90;;
20245;SDS011;10281;54.406;18.556;2023-12-04T13:48:57;18.23;;;10.77;;
20245;SDS011;10281;54.406;18.556;2023-12-04T13:51:24;15.53;;;9.47;;
20245;SDS011;10281;54.406;18.556;2023-12-04T13:53:52;17.43;;;9.87;;
20245;SDS011;10281;54.406;18.556;2023-12-04T13:56:20;15.10;;;9.40;;
20245;SDS011;10281;54.406;18.556;2023-12-04T13:58:52;14.80;;;9.60;;
20245;SDS011;10281;54.406;18.556;2023-12-04T14:01:23;17.67;;;10.13;;
20245;SDS011;10281;54.406;18.556;2023-12-04T14:03:52;21.17;;;11.10;;
20245;SDS011;10281;54.406;18.556;2023-12-04T14:06:19;16.23;;;11.07;;
20245;SDS011;10281;54.406;18.556;2023-12-04T14:08:46;20.27;;;14.17;;
20245;SDS011;10281;54.406;18.556;2023-12-04T14:11:12;17.13;;;11.70;;
20245;SDS011;10281;54.406;18.556;2023-12-04T14:13:40;15.27;;;10.27;;
20245;SDS011;10281;54.406;18.556;2023-12-04T14:16:07;18.63;;;9.83;;
20245;SDS011;10281;54.406;18.556;2023-12-04T14:18:35;13.53;;;9.03;;
20245;SDS011;10281;54.406;18.556;2023-12-04T14:21:01;16.40;;;9.70;;
20245;SDS011;10281;54.406;18.556;2023-12-04T14:23:28;14.30;;;9.10;;
20245;SDS011;10281;54.406;18.556;2023-12-04T14:25:55;16.13;;;10.47;;
20245;SDS011;10281;54.406;18.556;2023-12-04T14:28:21;18.67;;;10.70;;